Time;durP1;ratioP1;P1;durP2;ratioP2;P2;SDS_P1;SDS_P2;PMS_P1;PMS_P2;Temp;Humidity;BMP_temperature;BMP_pressure;BME280_temperature;BME280_humidity;BME280_pressure;Samples;Min_cycle;Max_cycle;Signal;HPM_P1;HPM_P2
2021/01/07 00:01:49;;;;;;;6.23;3.00;;;;;;;;;;4407145;32;20271;-79
2021/01/07 00:04:14;;;;;;;4.43;2.73;;;;;;;;;;4419885;32;20553;-79
2021/01/07 00:06:40;;;;;;;7.90;3.03;;;;;;;;;;4420514;32;20138;-79
2021/01/07 00:09:05;;;;;;;6.70;2.97;;;;;;;;;;4422039;32;20146;-78
2021/01/07 00:11:30;;;;;;;5.40;3.13;;;;;;;;;;4421126;32;20141;-79
2021/01/07 00:13:55;;;;;;;7.43;3.50;;;;;;;;;;4420072;32;20133;-79
2021/01/07 00:16:20;;;;;;;5.93;3.13;;;;;;;;;;4419925;32;20142;-79
2021/01/07 00:18:46;;;;;;;5.07;3.10;;;;;;;;;;4420743;32;20150;-79
2021/01/07 00:21:14;;;;;;;4.20;2.57;;;;;;;;;;4420003;32;20142;-80
2021/01/07 00:23:39;;;;;;;4.83;2.80;;;;;;;;;;4419799;32;20145;-79
2021/01/07 00:26:05;;;;;;;5.07;2.50;;;;;;;;;;4420493;32;20129;-79
2021/01/07 00:28:30;;;;;;;3.97;2.40;;;;;;;;;;4406521;32;20219;-78
2021/01/07 00:30:58;;;;;;;6.37;2.70;;;;;;;;;;4421221;32;20259;-77
2021/01/07 00:33:23;;;;;;;5.93;3.47;;;;;;;;;;4419930;32;20630;-78
2021/01/07 00:35:49;;;;;;;7.60;2.93;;;;;;;;;;4420618;32;20138;-78
2021/01/07 00:38:14;;;;;;;5.80;2.97;;;;;;;;;;4419513;32;20180;-78
2021/01/07 00:40:39;;;;;;;3.87;2.70;;;;;;;;;;4419952;32;20133;-78
2021/01/07 00:43:05;;;;;;;5.00;2.60;;;;;;;;;;4419691;32;20244;-78
2021/01/07 00:45:30;;;;;;;5.27;2.67;;;;;;;;;;4411757;32;20162;-78
2021/01/07 00:47:56;;;;;;;5.10;2.80;;;;;;;;;;4406841;32;20146;-78
2021/01/07 00:50:21;;;;;;;6.87;3.13;;;;;;;;;;4411344;32;20149;-78
2021/01/07 00:52:47;;;;;;;4.13;2.60;;;;;;;;;;4423131;32;20217;-78
2021/01/07 00:55:12;;;;;;;5.40;2.87;;;;;;;;;;4423024;32;20129;-79
2021/01/07 00:57:38;;;;;;;7.67;2.80;;;;;;;;;;4424393;32;20187;-78
2021/01/07 01:00:07;;;;;;;5.77;3.33;;;;;;;;;;4422695;32;20193;-79
2021/01/07 01:02:32;;;;;;;5.47;2.77;;;;;;;;;;4422121;32;20307;-78
2021/01/07 01:04:58;;;;;;;4.80;2.60;;;;;;;;;;4422958;32;20126;-80
2021/01/07 01:07:23;;;;;;;4.93;2.17;;;;;;;;;;4423218;32;20138;-78
2021/01/07 01:09:48;;;;;;;6.40;3.33;;;;;;;;;;4422708;32;20161;-78
2021/01/07 01:12:13;;;;;;;5.97;2.73;;;;;;;;;;4422326;32;20238;-78
2021/01/07 01:14:39;;;;;;;8.43;3.20;;;;;;;;;;4422232;32;20133;-78
2021/01/07 01:17:04;;;;;;;6.23;3.03;;;;;;;;;;4423859;32;20565;-78
2021/01/07 01:19:31;;;;;;;4.40;2.87;;;;;;;;;;4422813;32;20157;-78
2021/01/07 01:21:56;;;;;;;6.67;3.00;;;;;;;;;;4406917;32;20142;-78
2021/01/07 01:24:21;;;;;;;5.73;3.13;;;;;;;;;;4407231;32;20202;-78
2021/01/07 01:26:46;;;;;;;6.73;3.33;;;;;;;;;;4407324;32;20139;-78
2021/01/07 01:29:12;;;;;;;5.03;2.87;;;;;;;;;;4396308;32;20239;-78
2021/01/07 01:31:40;;;;;;;8.60;3.63;;;;;;;;;;4422782;32;20168;-78
2021/01/07 01:34:08;;;;;;;4.70;3.17;;;;;;;;;;4423179;32;20196;-78
2021/01/07 01:36:33;;;;;;;7.30;3.10;;;;;;;;;;4422621;32;20161;-78
2021/01/07 01:38:59;;;;;;;6.80;3.30;;;;;;;;;;4421135;32;20141;-78
2021/01/07 01:41:24;;;;;;;5.97;3.43;;;;;;;;;;4392772;32;20570;-78
2021/01/07 01:43:49;;;;;;;7.83;4.00;;;;;;;;;;4409421;32;20476;-78
2021/01/07 01:46:14;;;;;;;7.13;4.10;;;;;;;;;;4422071;32;20549;-78
2021/01/07 01:48:40;;;;;;;6.57;3.95;;;;;;;;;;4421945;32;20176;-78
2021/01/07 01:51:06;;;;;;;7.97;4.10;;;;;;;;;;4409148;32;20510;-78
2021/01/07 01:53:31;;;;;;;6.47;3.73;;;;;;;;;;4422046;32;20168;-79
2021/01/07 01:55:59;;;;;;;6.53;3.80;;;;;;;;;;4422188;32;20150;-78
2021/01/07 01:58:24;;;;;;;6.27;3.60;;;;;;;;;;4423260;32;20161;-78
2021/01/07 02:00:49;;;;;;;10.07;4.67;;;;;;;;;;4407743;32;20192;-79
2021/01/07 02:03:14;;;;;;;9.23;4.50;;;;;;;;;;4421469;32;20276;-78
2021/01/07 02:05:40;;;;;;;9.47;5.03;;;;;;;;;;4420512;32;20189;-78
2021/01/07 02:08:06;;;;;;;7.83;4.40;;;;;;;;;;4406468;32;20146;-79
2021/01/07 02:10:32;;;;;;;8.77;4.40;;;;;;;;;;4407193;32;20222;-78
2021/01/07 02:12:57;;;;;;;7.27;4.53;;;;;;;;;;4407068;32;20535;-78
2021/01/07 02:15:23;;;;;;;5.67;3.80;;;;;;;;;;4414778;32;20575;-78
2021/01/07 02:17:48;;;;;;;7.20;4.20;;;;;;;;;;4423244;32;20194;-78
2021/01/07 02:20:14;;;;;;;7.27;4.13;;;;;;;;;;4406548;32;20157;-78
2021/01/07 02:22:40;;;;;;;9.30;4.00;;;;;;;;;;4406323;32;20160;-78
2021/01/07 02:25:06;;;;;;;7.17;3.67;;;;;;;;;;4406229;32;20448;-78
2021/01/07 02:27:31;;;;;;;7.53;3.60;;;;;;;;;;4407728;32;20192;-79
2021/01/07 02:29:57;;;;;;;6.87;3.23;;;;;;;;;;4421059;32;20220;-79
2021/01/07 02:32:22;;;;;;;3.93;3.00;;;;;;;;;;4421851;32;20141;-78
2021/01/07 02:34:47;;;;;;;4.97;3.20;;;;;;;;;;4422595;32;20205;-78
2021/01/07 02:37:12;;;;;;;3.97;3.00;;;;;;;;;;4422596;32;20137;-78
2021/01/07 02:39:38;;;;;;;7.27;3.50;;;;;;;;;;4414708;32;20208;-78
2021/01/07 02:42:03;;;;;;;6.77;2.53;;;;;;;;;;4421073;32;20137;-78
2021/01/07 02:44:28;;;;;;;6.00;2.40;;;;;;;;;;4421274;32;20189;-79
2021/01/07 02:46:53;;;;;;;3.40;2.33;;;;;;;;;;4420675;32;20133;-79
2021/01/07 02:49:19;;;;;;;5.77;2.90;;;;;;;;;;4419517;32;20287;-79
2021/01/07 02:51:44;;;;;;;4.50;2.47;;;;;;;;;;4406049;32;20199;-79
2021/01/07 02:54:09;;;;;;;3.87;2.10;;;;;;;;;;4406399;32;20177;-79
2021/01/07 02:56:34;;;;;;;3.93;2.00;;;;;;;;;;4407728;32;20609;-79
2021/01/07 02:59:00;;;;;;;2.60;2.07;;;;;;;;;;4391955;32;20166;-79
2021/01/07 03:01:25;;;;;;;4.00;2.27;;;;;;;;;;4405437;32;20585;-78
2021/01/07 03:03:51;;;;;;;3.53;1.60;;;;;;;;;;4415320;32;20158;-79
2021/01/07 03:06:16;;;;;;;4.53;2.07;;;;;;;;;;4421743;32;20514;-79
2021/01/07 03:08:41;;;;;;;7.37;1.90;;;;;;;;;;4419988;32;20195;-79
2021/01/07 03:11:07;;;;;;;6.90;2.30;;;;;;;;;;4421344;32;20172;-78
2021/01/07 03:13:32;;;;;;;4.33;1.60;;;;;;;;;;4407060;32;20577;-78
2021/01/07 03:15:58;;;;;;;3.77;2.30;;;;;;;;;;4422255;32;20138;-78
2021/01/07 03:18:23;;;;;;;4.87;2.00;;;;;;;;;;4420599;32;20133;-79
2021/01/07 03:20:48;;;;;;;3.27;1.97;;;;;;;;;;4421050;32;20172;-78
2021/01/07 03:23:13;;;;;;;3.83;1.90;;;;;;;;;;4420953;32;20445;-78
2021/01/07 03:25:39;;;;;;;6.67;2.73;;;;;;;;;;4420495;32;20187;-78
2021/01/07 03:28:04;;;;;;;5.87;2.90;;;;;;;;;;4420473;32;20181;-79
2021/01/07 03:30:29;;;;;;;5.73;3.10;;;;;;;;;;4420301;32;20218;-79
2021/01/07 03:32:54;;;;;;;5.60;3.37;;;;;;;;;;4422116;32;20185;-80
2021/01/07 03:35:20;;;;;;;6.43;3.67;;;;;;;;;;4420763;32;20240;-79
2021/01/07 03:37:45;;;;;;;8.67;4.97;;;;;;;;;;4420512;32;20137;-78
2021/01/07 03:40:10;;;;;;;9.57;3.73;;;;;;;;;;4420561;32;20184;-79
2021/01/07 03:42:36;;;;;;;8.40;4.00;;;;;;;;;;4420186;32;20134;-79
2021/01/07 03:45:01;;;;;;;9.10;3.87;;;;;;;;;;4420529;32;20142;-79
2021/01/07 03:47:26;;;;;;;7.93;3.80;;;;;;;;;;4406736;32;20165;-79
2021/01/07 03:49:52;;;;;;;7.03;3.07;;;;;;;;;;4421474;32;20218;-78
2021/01/07 03:52:17;;;;;;;6.77;3.80;;;;;;;;;;4420126;32;20511;-78
2021/01/07 03:54:42;;;;;;;8.93;3.00;;;;;;;;;;4420578;32;20134;-78
2021/01/07 03:57:07;;;;;;;5.83;3.27;;;;;;;;;;4419953;32;20229;-78
2021/01/07 03:59:33;;;;;;;3.80;2.60;;;;;;;;;;4419917;32;20134;-78
2021/01/07 04:01:58;;;;;;;6.00;3.00;;;;;;;;;;4420758;32;20637;-79
2021/01/07 04:04:23;;;;;;;6.37;2.90;;;;;;;;;;4420437;32;20207;-79
2021/01/07 04:06:49;;;;;;;6.50;2.77;;;;;;;;;;4419945;32;20137;-78
2021/01/07 04:09:14;;;;;;;4.90;2.47;;;;;;;;;;4418275;32;20531;-78
2021/01/07 04:11:39;;;;;;;6.63;2.63;;;;;;;;;;4405325;32;20146;-78
2021/01/07 04:14:04;;;;;;;5.43;2.80;;;;;;;;;;4404446;32;20516;-79
2021/01/07 04:16:30;;;;;;;6.47;2.83;;;;;;;;;;4404572;32;20164;-79
2021/01/07 04:18:55;;;;;;;6.27;3.27;;;;;;;;;;4391324;32;20202;-78
2021/01/07 04:21:20;;;;;;;6.40;3.10;;;;;;;;;;4407469;32;20173;-79
2021/01/07 04:23:46;;;;;;;7.30;3.00;;;;;;;;;;4395685;32;20189;-78
2021/01/07 04:26:11;;;;;;;5.33;2.63;;;;;;;;;;4408102;32;20142;-78
2021/01/07 04:28:37;;;;;;;6.50;2.33;;;;;;;;;;4409555;32;20240;-78
2021/01/07 04:31:02;;;;;;;5.20;2.90;;;;;;;;;;4408611;32;20169;-78
2021/01/07 04:33:27;;;;;;;3.93;2.50;;;;;;;;;;4410624;32;20134;-78
2021/01/07 04:35:52;;;;;;;4.83;2.57;;;;;;;;;;4411400;32;20172;-78
2021/01/07 04:38:18;;;;;;;5.73;2.50;;;;;;;;;;4409386;32;20157;-78
2021/01/07 04:40:43;;;;;;;6.37;2.20;;;;;;;;;;4419511;32;20275;-78
2021/01/07 04:43:08;;;;;;;3.30;1.80;;;;;;;;;;4422848;32;20511;-78
2021/01/07 04:45:33;;;;;;;5.73;2.10;;;;;;;;;;4422336;32;20145;-78
2021/01/07 04:48:00;;;;;;;4.03;2.10;;;;;;;;;;4422814;32;20172;-79
2021/01/07 04:50:25;;;;;;;7.27;1.90;;;;;;;;;;4422725;32;20201;-78
2021/01/07 04:52:50;;;;;;;2.70;2.00;;;;;;;;;;4423376;32;20180;-78
2021/01/07 04:55:15;;;;;;;2.40;1.57;;;;;;;;;;4422458;32;20202;-77
2021/01/07 04:57:41;;;;;;;3.63;2.03;;;;;;;;;;4411025;32;20206;-78
2021/01/07 05:00:07;;;;;;;3.13;1.70;;;;;;;;;;4407518;32;20218;-78
2021/01/07 05:02:32;;;;;;;4.20;1.57;;;;;;;;;;4416960;32;20214;-78
2021/01/07 05:05:00;;;;;;;2.73;1.63;;;;;;;;;;4422429;32;20161;-79
2021/01/07 05:07:41;;;;;;;3.57;1.43;;;;;;;;;;4409653;32;20211;-79
2021/01/07 05:10:10;;;;;;;1.70;1.07;;;;;;;;;;4408481;32;20137;-79
2021/01/07 05:12:35;;;;;;;1.77;1.23;;;;;;;;;;4411748;32;20208;-79
2021/01/07 05:15:01;;;;;;;1.40;1.10;;;;;;;;;;4420816;32;20133;-78
2021/01/07 05:17:26;;;;;;;2.20;1.00;;;;;;;;;;4406580;32;20245;-79
2021/01/07 05:19:52;;;;;;;3.10;1.50;;;;;;;;;;4420525;32;20139;-78
2021/01/07 05:22:53;;;;;;;2.67;1.40;;;;;;;;;;4407859;32;20138;-79
2021/01/07 05:25:19;;;;;;;3.37;1.20;;;;;;;;;;4330754;33;20151;-79
2021/01/07 05:27:45;;;;;;;1.30;0.93;;;;;;;;;;4401923;32;20665;-78
2021/01/07 05:30:11;;;;;;;4.03;1.20;;;;;;;;;;4414503;32;20146;-78
2021/01/07 05:32:37;;;;;;;2.27;0.90;;;;;;;;;;4421575;32;20428;-78
2021/01/07 05:35:06;;;;;;;2.60;1.10;;;;;;;;;;4422707;32;20138;-80
2021/01/07 05:37:37;;;;;;;1.40;0.90;;;;;;;;;;4408075;32;20190;-79
2021/01/07 05:40:03;;;;;;;3.77;0.90;;;;;;;;;;4421906;32;20197;-79
2021/01/07 05:42:35;;;;;;;2.60;0.87;;;;;;;;;;4421858;32;20539;-79
2021/01/07 05:45:04;;;;;;;3.53;1.17;;;;;;;;;;4422345;32;20129;-79
2021/01/07 05:47:34;;;;;;;5.20;1.23;;;;;;;;;;4423558;32;20290;-78
2021/01/07 05:49:59;;;;;;;4.57;1.17;;;;;;;;;;4422913;32;20146;-78
2021/01/07 05:52:31;;;;;;;4.07;0.90;;;;;;;;;;4417798;32;20681;-78
2021/01/07 05:55:01;;;;;;;3.70;1.10;;;;;;;;;;4407878;32;20176;-78
2021/01/07 05:57:28;;;;;;;4.20;1.50;;;;;;;;;;4406379;32;20535;-78
2021/01/07 05:59:54;;;;;;;3.07;1.07;;;;;;;;;;4411989;32;20142;-78
2021/01/07 06:02:20;;;;;;;1.50;0.90;;;;;;;;;;4406365;32;20188;-79
2021/01/07 06:04:49;;;;;;;3.33;1.00;;;;;;;;;;4411193;32;20295;-79
2021/01/07 06:07:19;;;;;;;2.93;0.97;;;;;;;;;;4422109;32;20523;-80
2021/01/07 06:09:47;;;;;;;2.00;1.23;;;;;;;;;;4422313;32;20203;-79
2021/01/07 06:12:13;;;;;;;3.00;1.00;;;;;;;;;;4416033;32;20708;-79
2021/01/07 06:14:45;;;;;;;3.70;1.10;;;;;;;;;;4410811;32;20153;-79
2021/01/07 06:17:10;;;;;;;2.10;1.10;;;;;;;;;;4422170;32;20174;-79
2021/01/07 06:19:40;;;;;;;5.10;0.83;;;;;;;;;;4421418;32;20139;-80
2021/01/07 06:22:09;;;;;;;2.73;1.10;;;;;;;;;;4421409;32;20173;-80
2021/01/07 06:24:36;;;;;;;2.50;1.00;;;;;;;;;;4407852;32;20451;-79
2021/01/07 06:27:20;;;;;;;3.73;1.27;;;;;;;;;;4414126;32;20150;-78
2021/01/07 06:29:45;;;;;;;2.87;1.20;;;;;;;;;;4406487;32;20177;-78
2021/01/07 06:32:11;;;;;;;2.80;1.27;;;;;;;;;;4415863;32;20192;-79
2021/01/07 06:34:38;;;;;;;3.23;1.07;;;;;;;;;;4421101;32;20184;-79
2021/01/07 06:37:03;;;;;;;5.97;1.43;;;;;;;;;;4421248;32;20203;-78
2021/01/07 06:39:29;;;;;;;2.30;1.10;;;;;;;;;;4416197;32;20153;-78
2021/01/07 06:41:54;;;;;;;2.10;1.10;;;;;;;;;;4406221;32;20138;-79
2021/01/07 06:44:20;;;;;;;2.87;1.00;;;;;;;;;;4409132;32;20571;-78
2021/01/07 06:46:49;;;;;;;3.83;1.07;;;;;;;;;;4421101;32;20676;-78
2021/01/07 06:49:26;;;;;;;2.57;1.00;;;;;;;;;;4421490;32;20142;-79
2021/01/07 06:51:56;;;;;;;2.03;1.10;;;;;;;;;;4411869;32;20157;-79
2021/01/07 06:54:23;;;;;;;2.23;1.13;;;;;;;;;;4391370;32;20158;-79
2021/01/07 06:56:52;;;;;;;1.90;0.90;;;;;;;;;;4405980;32;20141;-80
2021/01/07 06:59:18;;;;;;;4.07;1.10;;;;;;;;;;4406970;32;20577;-79
2021/01/07 07:01:46;;;;;;;2.93;1.10;;;;;;;;;;4405423;32;20166;-79
2021/01/07 07:04:12;;;;;;;2.57;1.13;;;;;;;;;;4410488;32;20154;-80
2021/01/07 07:06:41;;;;;;;2.17;1.10;;;;;;;;;;4420792;32;20167;-79
2021/01/07 07:09:19;;;;;;;5.43;1.30;;;;;;;;;;4412877;32;20150;-80
2021/01/07 07:11:51;;;;;;;3.00;1.50;;;;;;;;;;4417877;32;20189;-77
2021/01/07 07:14:17;;;;;;;2.47;1.50;;;;;;;;;;4419081;32;20198;-78
2021/01/07 07:16:42;;;;;;;3.53;2.07;;;;;;;;;;4420710;32;20483;-78
2021/01/07 07:19:07;;;;;;;2.93;1.70;;;;;;;;;;4421445;32;20169;-79
2021/01/07 07:21:33;;;;;;;4.10;1.77;;;;;;;;;;4420675;32;20472;-79
2021/01/07 07:24:15;;;;;;;4.97;1.70;;;;;;;;;;4420098;32;20134;-79
2021/01/07 07:26:41;;;;;;;3.73;2.00;;;;;;;;;;4406833;32;20169;-79
2021/01/07 07:29:09;;;;;;;2.63;1.90;;;;;;;;;;4420530;32;20138;-79
2021/01/07 07:31:35;;;;;;;4.23;2.13;;;;;;;;;;4420650;32;20138;-79
2021/01/07 07:34:01;;;;;;;4.07;2.20;;;;;;;;;;4420535;32;20182;-79
2021/01/07 07:36:29;;;;;;;4.43;2.50;;;;;;;;;;4420811;32;20577;-79
2021/01/07 07:38:55;;;;;;;4.70;2.17;;;;;;;;;;4420373;32;20138;-78
2021/01/07 07:41:25;;;;;;;4.07;2.77;;;;;;;;;;4419170;32;20134;-78
2021/01/07 07:43:52;;;;;;;5.77;2.70;;;;;;;;;;4407628;32;20205;-77
2021/01/07 07:46:23;;;;;;;10.07;3.40;;;;;;;;;;4407359;32;20176;-78
2021/01/07 07:48:56;;;;;;;8.27;4.23;;;;;;;;;;4416764;32;20173;-77
2021/01/07 07:51:21;;;;;;;8.77;4.20;;;;;;;;;;4407481;32;20158;-78
2021/01/07 07:53:46;;;;;;;8.53;4.30;;;;;;;;;;4403906;32;20257;-77
2021/01/07 07:56:24;;;;;;;6.87;3.67;;;;;;;;;;4404315;32;20160;-78
2021/01/07 07:58:59;;;;;;;8.37;3.63;;;;;;;;;;4404685;32;20146;-79
2021/01/07 08:01:36;;;;;;;6.47;3.90;;;;;;;;;;4408363;32;20161;-77
2021/01/07 08:04:01;;;;;;;6.23;3.83;;;;;;;;;;4419331;32;20173;-78
2021/01/07 08:06:27;;;;;;;6.23;3.90;;;;;;;;;;4419120;32;20207;-78
2021/01/07 08:09:02;;;;;;;8.47;4.03;;;;;;;;;;4404991;32;20134;-78
2021/01/07 08:11:30;;;;;;;7.40;4.00;;;;;;;;;;4405803;32;20173;-78
2021/01/07 08:13:56;;;;;;;9.23;4.67;;;;;;;;;;4404368;32;20203;-77
2021/01/07 08:16:22;;;;;;;7.50;3.70;;;;;;;;;;4405875;32;20138;-78
2021/01/07 08:18:47;;;;;;;4.33;2.33;;;;;;;;;;4419044;32;20226;-77
2021/01/07 08:21:13;;;;;;;4.53;2.17;;;;;;;;;;4415010;32;20139;-80
2021/01/07 08:23:38;;;;;;;8.90;2.60;;;;;;;;;;4412464;32;20512;-76
2021/01/07 08:26:04;;;;;;;7.97;2.03;;;;;;;;;;4415101;32;20513;-74
2021/01/07 08:28:45;;;;;;;4.70;1.83;;;;;;;;;;4409900;32;20188;-76
2021/01/07 08:31:10;;;;;;;6.27;1.40;;;;;;;;;;4404725;32;20142;-76
2021/01/07 08:33:36;;;;;;;3.40;2.33;;;;;;;;;;4411541;32;20167;-75
2021/01/07 08:36:07;;;;;;;4.63;1.33;;;;;;;;;;4420329;32;20134;-76
2021/01/07 08:38:52;;;;;;;3.43;1.40;;;;;;;;;;4420395;32;20134;-77
2021/01/07 08:41:20;;;;;;;4.03;2.00;;;;;;;;;;4413888;32;20153;-77
2021/01/07 08:43:50;;;;;;;4.63;1.80;;;;;;;;;;4413146;32;20224;-76
2021/01/07 08:46:16;;;;;;;6.80;1.90;;;;;;;;;;4419337;32;20657;-79
2021/01/07 08:49:00;;;;;;;7.43;3.47;;;;;;;;;;4405585;32;20197;-77
2021/01/07 08:51:26;;;;;;;6.30;2.27;;;;;;;;;;4420318;32;20232;-77
2021/01/07 08:53:59;;;;;;;5.87;2.37;;;;;;;;;;4419859;32;20167;-79
2021/01/07 08:56:35;;;;;;;8.43;2.30;;;;;;;;;;4420139;32;20137;-80
2021/01/07 08:59:19;;;;;;;7.63;2.30;;;;;;;;;;4420489;32;20176;-82
2021/01/07 09:01:45;;;;;;;9.83;2.90;;;;;;;;;;4420526;32;20149;-80
2021/01/07 09:04:30;;;;;;;2.43;1.60;;;;;;;;;;4405557;32;20594;-80
2021/01/07 09:10:29;;;;;;;7.33;1.77;;;;;;;;;;4372476;32;20208;-77
2021/01/07 09:12:55;;;;;;;4.93;2.10;;;;;;;;;;4407674;32;20346;-78
2021/01/07 09:15:24;;;;;;;4.03;2.60;;;;;;;;;;4406923;32;20567;-77
2021/01/07 09:17:55;;;;;;;4.03;2.43;;;;;;;;;;4418502;32;20141;-74
2021/01/07 09:20:44;;;;;;;4.23;2.33;;;;;;;;;;4408899;32;20606;-74
2021/01/07 09:23:47;;;;;;;;;;;;;;;;;;;;;
2021/01/07 09:26:15;;;;;;;2.20;1.30;;;;;;;;;;4419661;32;20206;-76
2021/01/07 09:28:40;;;;;;;2.47;1.10;;;;;;;;;;4422488;32;20232;-75
2021/01/07 09:31:14;;;;;;;2.27;0.90;;;;;;;;;;4401489;32;20500;-78
2021/01/07 09:33:46;;;;;;;2.50;0.70;;;;;;;;;;4393225;32;20258;-79
2021/01/07 09:36:37;;;;;;;1.83;1.10;;;;;;;;;;4394364;32;20212;-77
2021/01/07 09:39:02;;;;;;;0.83;0.67;;;;;;;;;;4419341;32;20150;-77
2021/01/07 09:41:28;;;;;;;3.90;1.40;;;;;;;;;;4406700;32;20455;-77
2021/01/07 09:43:53;;;;;;;2.53;0.80;;;;;;;;;;4406683;32;20165;-78
2021/01/07 09:46:18;;;;;;;0.97;0.70;;;;;;;;;;4406508;32;20453;-78
2021/01/07 09:48:43;;;;;;;1.13;0.67;;;;;;;;;;4407080;32;20138;-76
2021/01/07 09:51:16;;;;;;;1.37;0.80;;;;;;;;;;4406969;32;20142;-77
2021/01/07 09:53:41;;;;;;;1.57;0.77;;;;;;;;;;4393389;32;20200;-76
2021/01/07 09:56:07;;;;;;;3.57;1.10;;;;;;;;;;4406285;32;20272;-77
2021/01/07 09:58:32;;;;;;;2.27;0.70;;;;;;;;;;4406895;32;20501;-77
2021/01/07 10:01:00;;;;;;;3.00;0.83;;;;;;;;;;4420982;32;20184;-76
2021/01/07 10:03:26;;;;;;;2.90;1.03;;;;;;;;;;4407725;32;20162;-76
2021/01/07 10:05:51;;;;;;;5.13;1.13;;;;;;;;;;4407810;32;20185;-77
2021/01/07 10:08:17;;;;;;;2.77;1.00;;;;;;;;;;4406115;32;20141;-75
2021/01/07 10:10:42;;;;;;;2.03;1.20;;;;;;;;;;4424794;32;20145;-75
2021/01/07 10:13:07;;;;;;;2.67;0.80;;;;;;;;;;4419028;32;20192;-75
2021/01/07 10:18:28;;;;;;;2.93;1.10;;;;;;;;;;4432796;32;20694;-80
2021/01/07 10:21:14;;;;;;;2.80;0.97;;;;;;;;;;4437411;32;20134;-80
2021/01/07 10:24:20;;;;;;;2.50;1.03;;;;;;;;;;4436974;32;20199;-79
2021/01/07 10:26:39;;;;;;;3.07;1.17;;;;;;;;;;4421804;32;20276;-78
2021/01/07 10:29:04;;;;;;;5.57;1.20;;;;;;;;;;4421049;32;20554;-78
2021/01/07 10:31:30;;;;;;;4.13;1.40;;;;;;;;;;4421244;32;20583;-78
2021/01/07 10:33:58;;;;;;;5.67;1.50;;;;;;;;;;4421225;32;20564;-79
2021/01/07 10:36:23;;;;;;;4.23;1.47;;;;;;;;;;4420673;32;20205;-78
2021/01/07 10:38:49;;;;;;;3.90;1.53;;;;;;;;;;4426884;32;20145;-77
2021/01/07 10:41:15;;;;;;;7.00;1.80;;;;;;;;;;4410822;32;20217;-79
2021/01/07 10:43:40;;;;;;;5.67;1.93;;;;;;;;;;4425347;32;20555;-80
2021/01/07 10:46:06;;;;;;;3.83;1.70;;;;;;;;;;4422422;32;20238;-78
2021/01/07 10:48:35;;;;;;;5.13;1.50;;;;;;;;;;4409127;32;20158;-79
2021/01/07 10:51:01;;;;;;;4.30;1.47;;;;;;;;;;4436129;32;20259;-79
2021/01/07 10:53:45;;;;;;;5.97;1.30;;;;;;;;;;4436074;32;20184;-79
2021/01/07 10:56:16;;;;;;;5.53;1.40;;;;;;;;;;4429254;32;20171;-80
2021/01/07 10:59:03;;;;;;;4.20;1.17;;;;;;;;;;4407401;32;20173;-80
2021/01/07 11:01:43;;;;;;;6.17;1.40;;;;;;;;;;4418097;32;20162;-79
2021/01/07 11:04:09;;;;;;;4.70;1.53;;;;;;;;;;4435937;32;20173;-85
2021/01/07 11:06:34;;;;;;;6.53;1.67;;;;;;;;;;4432196;32;20195;-82
2021/01/07 11:08:59;;;;;;;5.50;1.80;;;;;;;;;;4399937;32;20208;-84
2021/01/07 11:11:51;;;;;;;3.37;1.17;;;;;;;;;;4423230;32;20181;-83
2021/01/07 11:14:27;;;;;;;8.63;1.50;;;;;;;;;;4406909;32;20251;-82
2021/01/07 11:17:00;;;;;;;7.53;1.70;;;;;;;;;;4424695;32;20194;-82
2021/01/07 11:19:26;;;;;;;6.30;1.30;;;;;;;;;;4434218;32;20644;-80
2021/01/07 11:22:03;;;;;;;6.07;1.67;;;;;;;;;;4421133;32;20149;-81
2021/01/07 11:24:28;;;;;;;4.43;1.47;;;;;;;;;;4421855;32;20214;-81
2021/01/07 11:26:54;;;;;;;5.93;1.67;;;;;;;;;;4421805;32;20576;-82
2021/01/07 11:29:23;;;;;;;6.73;1.67;;;;;;;;;;4426222;32;20207;-82
2021/01/07 11:32:00;;;;;;;6.23;1.27;;;;;;;;;;4436391;32;20204;-82
2021/01/07 11:34:28;;;;;;;6.20;1.50;;;;;;;;;;4420540;32;20196;-82
2021/01/07 11:37:12;;;;;;;6.40;1.60;;;;;;;;;;4412709;32;20157;-81
2021/01/07 11:39:43;;;;;;;6.27;1.70;;;;;;;;;;4405437;32;20438;-80
2021/01/07 11:43:05;;;;;;;7.07;1.53;;;;;;;;;;4391283;32;20180;-81
2021/01/07 11:45:19;;;;;;;6.43;2.00;;;;;;;;;;4399178;32;20173;-79
2021/01/07 11:47:47;;;;;;;6.47;1.43;;;;;;;;;;4391782;32;20170;-79
2021/01/07 11:50:13;;;;;;;3.60;1.23;;;;;;;;;;4405698;32;20602;-81
2021/01/07 11:52:40;;;;;;;3.33;1.17;;;;;;;;;;4405850;32;20142;-81
2021/01/07 11:55:06;;;;;;;3.73;1.40;;;;;;;;;;4405390;32;20138;-80
2021/01/07 11:57:34;;;;;;;9.87;1.43;;;;;;;;;;4390970;32;20162;-79
2021/01/07 12:00:01;;;;;;;4.97;1.10;;;;;;;;;;4391337;32;20169;-80
2021/01/07 12:02:26;;;;;;;4.60;1.37;;;;;;;;;;4405252;32;20150;-80
2021/01/07 12:04:53;;;;;;;8.53;1.23;;;;;;;;;;4388283;32;20166;-79
2021/01/07 12:07:28;;;;;;;6.17;1.53;;;;;;;;;;4403361;32;20142;-79
2021/01/07 12:09:55;;;;;;;9.03;1.40;;;;;;;;;;4405122;32;20125;-80
2021/01/07 12:12:21;;;;;;;4.43;1.50;;;;;;;;;;4404390;32;20223;-79
2021/01/07 12:14:48;;;;;;;3.93;1.40;;;;;;;;;;4404516;32;20196;-78
2021/01/07 12:17:14;;;;;;;5.37;1.30;;;;;;;;;;4390833;32;20229;-78
2021/01/07 12:19:40;;;;;;;6.80;1.40;;;;;;;;;;4405151;32;20141;-77
2021/01/07 12:22:07;;;;;;;8.17;1.40;;;;;;;;;;4404724;32;20216;-78
2021/01/07 12:24:33;;;;;;;3.00;1.30;;;;;;;;;;4404817;32;20556;-77
2021/01/07 12:26:59;;;;;;;6.23;1.33;;;;;;;;;;4411717;32;20142;-77
2021/01/07 12:29:36;;;;;;;4.50;1.10;;;;;;;;;;4404925;32;20164;-77
2021/01/07 12:32:03;;;;;;;5.20;1.30;;;;;;;;;;4405086;32;20143;-78
2021/01/07 12:35:07;;;;;;;3.17;0.80;;;;;;;;;;4391862;32;20230;-78
2021/01/07 12:37:45;;;;;;;3.37;1.10;;;;;;;;;;4370798;32;20580;-78
2021/01/07 12:40:11;;;;;;;8.17;1.30;;;;;;;;;;4357341;32;20627;-78
2021/01/07 12:42:44;;;;;;;4.97;1.23;;;;;;;;;;4373097;32;20686;-78
2021/01/07 12:45:16;;;;;;;5.20;1.33;;;;;;;;;;4407308;32;20134;-78
2021/01/07 12:47:43;;;;;;;6.93;1.60;;;;;;;;;;4407896;32;20134;-77
2021/01/07 12:50:09;;;;;;;4.73;1.00;;;;;;;;;;4407608;32;20160;-76
2021/01/07 12:52:34;;;;;;;1.53;0.70;;;;;;;;;;4393177;32;20162;-77
2021/01/07 12:57:55;;;;;;;6.13;1.20;;;;;;;;;;4417279;32;20198;-79
2021/01/07 13:00:31;;;;;;;7.53;1.03;;;;;;;;;;4423446;32;20125;-79
2021/01/07 13:02:56;;;;;;;3.23;0.80;;;;;;;;;;4408519;32;20193;-77
2021/01/07 13:05:26;;;;;;;4.57;1.10;;;;;;;;;;4434181;32;20224;-79
2021/01/07 13:08:09;;;;;;;4.60;1.40;;;;;;;;;;4410896;32;20157;-80
2021/01/07 13:10:36;;;;;;;5.63;1.13;;;;;;;;;;4409481;32;20231;-81
2021/01/07 13:13:14;;;;;;;5.77;1.30;;;;;;;;;;4408299;32;20213;-79
2021/01/07 13:15:42;;;;;;;4.93;1.40;;;;;;;;;;4408810;32;20166;-80
2021/01/07 13:18:07;;;;;;;2.27;0.90;;;;;;;;;;4407955;32;20168;-79
2021/01/07 13:20:43;;;;;;;6.43;0.93;;;;;;;;;;4407506;32;20158;-79
2021/01/07 13:23:22;;;;;;;3.00;1.00;;;;;;;;;;4411109;32;20241;-78
2021/01/07 13:26:01;;;;;;;2.63;1.13;;;;;;;;;;4423480;32;20183;-79
2021/01/07 13:28:26;;;;;;;3.03;0.90;;;;;;;;;;4390923;32;20700;-80
2021/01/07 13:30:54;;;;;;;8.53;1.30;;;;;;;;;;4395606;32;20178;-79
2021/01/07 13:33:21;;;;;;;4.47;1.00;;;;;;;;;;4407350;32;20223;-79
2021/01/07 13:35:47;;;;;;;4.30;0.87;;;;;;;;;;4411126;32;20585;-79
2021/01/07 13:38:13;;;;;;;4.17;0.77;;;;;;;;;;4407955;32;20170;-80
2021/01/07 13:40:42;;;;;;;4.33;1.00;;;;;;;;;;4407863;32;20506;-79
2021/01/07 13:43:08;;;;;;;4.73;0.90;;;;;;;;;;4408522;32;20182;-79
2021/01/07 13:45:46;;;;;;;4.40;0.77;;;;;;;;;;4408278;32;20169;-79
2021/01/07 13:48:19;;;;;;;8.83;0.90;;;;;;;;;;4422615;32;20554;-79
2021/01/07 13:50:47;;;;;;;3.00;0.93;;;;;;;;;;4407974;32;20204;-80
2021/01/07 13:53:12;;;;;;;3.73;0.87;;;;;;;;;;4407227;32;20193;-79
2021/01/07 13:55:50;;;;;;;5.43;0.90;;;;;;;;;;4408085;32;20166;-78
2021/01/07 13:58:18;;;;;;;2.00;1.10;;;;;;;;;;4407954;32;20761;-79
2021/01/07 14:00:44;;;;;;;3.30;0.97;;;;;;;;;;4407748;32;20191;-80
2021/01/07 14:03:09;;;;;;;5.03;0.87;;;;;;;;;;4407653;32;20173;-79
2021/01/07 14:05:39;;;;;;;3.90;1.27;;;;;;;;;;4385572;32;20170;-79
2021/01/07 14:08:09;;;;;;;5.67;1.73;;;;;;;;;;4392534;32;20617;-79
2021/01/07 14:10:36;;;;;;;4.47;1.37;;;;;;;;;;4392962;32;20161;-79
2021/01/07 14:13:07;;;;;;;5.93;1.40;;;;;;;;;;4395038;32;20166;-79
2021/01/07 14:15:33;;;;;;;4.40;1.20;;;;;;;;;;4409087;32;20235;-78
2021/01/07 14:18:04;;;;;;;3.37;1.10;;;;;;;;;;4422358;32;20193;-79
2021/01/07 14:20:35;;;;;;;3.83;1.00;;;;;;;;;;4396530;32;20183;-79
2021/01/07 14:23:04;;;;;;;3.83;1.20;;;;;;;;;;4407531;32;20583;-79
2021/01/07 14:25:32;;;;;;;3.40;1.20;;;;;;;;;;4398935;32;20196;-79
2021/01/07 14:28:04;;;;;;;5.97;1.50;;;;;;;;;;4419179;32;20187;-79
2021/01/07 14:30:30;;;;;;;5.90;1.30;;;;;;;;;;4407147;32;20204;-80
2021/01/07 14:32:56;;;;;;;6.13;1.40;;;;;;;;;;4421250;32;20591;-79
2021/01/07 14:35:21;;;;;;;8.50;1.23;;;;;;;;;;4407649;32;20281;-79
2021/01/07 14:37:49;;;;;;;3.80;1.27;;;;;;;;;;4420953;32;20232;-79
2021/01/07 14:40:19;;;;;;;7.67;1.70;;;;;;;;;;4420927;32;20480;-79
2021/01/07 14:42:45;;;;;;;6.33;1.50;;;;;;;;;;4407660;32;20188;-80
2021/01/07 14:45:11;;;;;;;7.10;1.77;;;;;;;;;;4421432;32;20142;-80
2021/01/07 14:47:55;;;;;;;9.10;1.70;;;;;;;;;;4407111;32;20212;-80
2021/01/07 14:50:24;;;;;;;8.87;2.00;;;;;;;;;;4407263;32;20169;-80
2021/01/07 14:52:50;;;;;;;8.53;1.87;;;;;;;;;;4407103;32;20158;-80
2021/01/07 14:55:16;;;;;;;8.13;1.77;;;;;;;;;;4407109;32;20232;-80
2021/01/07 14:57:54;;;;;;;6.63;1.90;;;;;;;;;;4407126;32;20546;-80
2021/01/07 15:00:21;;;;;;;5.00;2.00;;;;;;;;;;4420996;32;20152;-80